Orlando, Florida
Traffic Map
Current Weather Conditions
Orlando, Florida
Few Clouds
Few Clouds
21°
Feels Like: 21°
Wind Chill: 21° Ceiling: Unl
Heat Index: 21° Visibility: 10mi
Dew Point: 19° Wind: 5mph
Humidity: 90% Direction: 350° (N)
Pressure: 29.84in Gusts: 0mph
Raw Report DataKORL 310753Z AUTO 35004KT 10SM FEW060 21/19 A2984 RMK AO2 SLP108 T02110194
Traffic Incident Summary
Active as of:
Severity:
Category:
InformationThere was an issue retrieving the traffic information for this location. Please try a different location or try again shortly.
Advertisements
Track Severe Weather on mobile